createdAt,value
2018-07-19T00:01:58.310Z,8.50
2018-07-19T00:04:26.681Z,9.58
2018-07-19T00:06:54.961Z,8.60
2018-07-19T00:09:23.274Z,9.55
2018-07-19T00:11:51.562Z,9.65
2018-07-19T00:14:21.014Z,8.88
2018-07-19T00:16:49.638Z,9.28
2018-07-19T00:19:18.387Z,9.13
2018-07-19T00:21:47.071Z,8.35
2018-07-19T00:24:15.354Z,8.80
2018-07-19T00:26:43.959Z,9.70
2018-07-19T00:29:12.310Z,9.20
2018-07-19T00:31:40.977Z,9.50
2018-07-19T00:34:09.682Z,9.05
2018-07-19T00:36:38.358Z,8.93
2018-07-19T00:39:07.420Z,9.60
2018-07-19T00:41:36.089Z,8.10
2018-07-19T00:44:04.415Z,9.05
2018-07-19T00:46:32.737Z,8.50
2018-07-19T00:49:01.034Z,9.15
2018-07-19T00:51:29.665Z,8.78
2018-07-19T00:53:57.966Z,8.48
2018-07-19T00:56:27.374Z,8.55
2018-07-19T00:58:55.818Z,9.15
2018-07-19T01:01:24.387Z,9.30
2018-07-19T01:03:52.733Z,9.55
2018-07-19T01:06:21.061Z,9.75
2018-07-19T01:08:49.650Z,10.10
2018-07-19T01:11:18.326Z,9.58
2018-07-19T01:13:47.694Z,9.40
2018-07-19T01:16:15.981Z,8.98
2018-07-19T01:18:44.390Z,11.05
2018-07-19T01:21:13.393Z,9.13
2018-07-19T01:23:42.153Z,9.33
2018-07-19T01:26:10.864Z,10.10
2018-07-19T01:28:39.534Z,9.45
2018-07-19T01:31:08.265Z,9.13
2018-07-19T01:33:36.830Z,9.55
2018-07-19T01:36:05.606Z,9.05
2018-07-19T01:38:33.913Z,10.68
2018-07-19T01:41:06.593Z,9.28
2018-07-19T01:43:34.879Z,9.90
2018-07-19T01:46:03.553Z,9.83
2018-07-19T01:48:32.319Z,9.68
2018-07-19T01:51:00.945Z,10.13
2018-07-19T01:53:30.030Z,9.55
2018-07-19T01:55:58.769Z,9.90
2018-07-19T01:58:27.441Z,10.03
2018-07-19T02:00:56.154Z,10.25
2018-07-19T02:03:24.431Z,10.25
2018-07-19T02:05:53.104Z,9.63
2018-07-19T02:08:21.794Z,9.15
2018-07-19T02:10:50.535Z,9.88
2018-07-19T02:13:19.174Z,9.75
2018-07-19T02:15:47.489Z,10.95
2018-07-19T02:18:16.054Z,10.40
2018-07-19T02:20:44.825Z,10.05
2018-07-19T02:23:13.508Z,9.00
2018-07-19T02:25:41.825Z,10.08
2018-07-19T02:28:10.806Z,10.55
2018-07-19T02:30:39.091Z,11.05
2018-07-19T02:33:07.436Z,10.68
2018-07-19T02:35:35.717Z,11.00
2018-07-19T02:38:03.997Z,9.50
2018-07-19T02:40:32.674Z,10.00
2018-07-19T02:43:01.310Z,10.60
2018-07-19T02:45:29.842Z,10.03
2018-07-19T02:47:58.620Z,9.38
2018-07-19T02:50:27.419Z,9.00
2018-07-19T02:52:55.692Z,9.75
2018-07-19T02:55:23.977Z,9.75
2018-07-19T02:57:52.662Z,10.25
2018-07-19T03:00:21.754Z,9.30
2018-07-19T03:02:50.362Z,9.05
2018-07-19T03:05:18.674Z,9.60
2018-07-19T03:07:47.873Z,10.05
2018-07-19T03:10:16.914Z,9.45
2018-07-19T03:12:45.678Z,10.18
2018-07-19T03:15:14.267Z,9.75
2018-07-19T03:17:43.056Z,8.88
2018-07-19T03:20:11.394Z,8.38
2018-07-19T03:22:39.685Z,9.10
2018-07-19T03:25:08.234Z,8.78
2018-07-19T03:27:36.887Z,8.28
2018-07-19T03:30:05.345Z,9.48
2018-07-19T03:32:33.854Z,8.78
2018-07-19T03:35:02.555Z,7.60
2018-07-19T03:37:31.149Z,9.08
2018-07-19T03:39:59.447Z,8.40
2018-07-19T03:42:28.189Z,8.15
2018-07-19T03:44:56.482Z,8.08
2018-07-19T03:47:25.162Z,8.35
2018-07-19T03:49:53.465Z,7.28
2018-07-19T03:52:21.749Z,8.58
2018-07-19T03:54:51.135Z,8.80
2018-07-19T03:57:19.899Z,8.00
2018-07-19T03:59:48.582Z,7.95
2018-07-19T04:02:16.872Z,7.65
2018-07-19T04:04:45.457Z,7.65
2018-07-19T04:07:13.782Z,8.40
2018-07-19T04:09:42.069Z,8.80
2018-07-19T04:12:11.082Z,7.55
2018-07-19T04:14:39.454Z,8.30
2018-07-19T04:17:08.087Z,7.10
2018-07-19T04:19:36.367Z,7.53
2018-07-19T04:22:04.708Z,8.08
2018-07-19T04:24:33.802Z,7.85
2018-07-19T04:27:02.317Z,8.18
2018-07-19T04:29:31.607Z,8.63
2018-07-19T04:31:59.923Z,7.28
2018-07-19T04:34:28.635Z,8.10
2018-07-19T04:36:57.149Z,7.30
2018-07-19T04:39:25.515Z,7.20
2018-07-19T04:41:54.181Z,6.87
2018-07-19T04:44:23.014Z,8.40
2018-07-19T04:46:55.646Z,7.40
2018-07-19T04:49:23.944Z,6.83
2018-07-19T04:51:52.940Z,7.83
2018-07-19T04:54:22.026Z,7.40
2018-07-19T04:56:50.814Z,8.45
2018-07-19T04:59:19.415Z,8.20
2018-07-19T05:01:47.827Z,6.75
2018-07-19T05:04:16.395Z,8.35
2018-07-19T05:06:44.730Z,7.70
2018-07-19T05:09:13.435Z,8.78
2018-07-19T05:11:42.114Z,8.78
2018-07-19T05:14:10.420Z,7.62
2018-07-19T05:16:39.474Z,8.60
2018-07-19T05:19:07.890Z,8.68
2018-07-19T05:21:36.374Z,8.33
2018-07-19T05:24:04.726Z,7.85
2018-07-19T05:26:33.092Z,8.50
2018-07-19T05:29:01.415Z,8.13
2018-07-19T05:31:30.047Z,7.90
2018-07-19T05:33:59.006Z,6.58
2018-07-19T05:36:27.735Z,8.28
2018-07-19T05:38:56.081Z,7.75
2018-07-19T05:41:24.668Z,8.98
2018-07-19T05:43:52.990Z,7.80
2018-07-19T05:46:21.282Z,7.50
2018-07-19T05:48:49.781Z,8.15
2018-07-19T05:51:18.138Z,8.95
2018-07-19T05:53:46.506Z,8.13
2018-07-19T05:56:15.522Z,8.93
2018-07-19T05:58:43.875Z,9.28
2018-07-19T06:01:12.183Z,8.93
2018-07-19T06:03:40.782Z,8.28
2018-07-19T06:06:09.097Z,8.65
2018-07-19T06:08:37.805Z,8.75
2018-07-19T06:11:06.298Z,9.23
2018-07-19T06:13:35.246Z,7.70
2018-07-19T06:16:03.818Z,7.53
2018-07-19T06:18:32.551Z,8.43
2018-07-19T06:21:00.894Z,7.20
2018-07-19T06:23:29.509Z,7.83
2018-07-19T06:25:57.822Z,7.15
2018-07-19T06:28:26.524Z,8.63
2018-07-19T06:30:55.489Z,7.78
2018-07-19T06:33:24.490Z,8.40
2018-07-19T06:35:52.805Z,8.10
2018-07-19T06:38:21.213Z,7.92
2018-07-19T06:40:49.814Z,7.83
2018-07-19T06:43:18.170Z,7.17
2018-07-19T06:45:47.257Z,7.85
2018-07-19T06:48:15.774Z,7.60
2018-07-19T06:50:44.310Z,8.28
2018-07-19T06:53:12.829Z,7.03
2018-07-19T06:55:41.510Z,7.78
2018-07-19T06:58:09.970Z,7.15
2018-07-19T07:00:38.474Z,7.78
2018-07-19T07:03:07.670Z,7.80
2018-07-19T07:05:35.993Z,7.20
2018-07-19T07:08:04.653Z,7.90
2018-07-19T07:10:33.313Z,7.50
2018-07-19T07:13:01.595Z,7.20
2018-07-19T07:15:29.910Z,7.00
2018-07-19T07:17:58.194Z,7.40
2018-07-19T07:20:26.487Z,7.60
2018-07-19T07:22:55.158Z,7.03
2018-07-19T07:25:23.803Z,7.53
2018-07-19T07:27:52.150Z,6.87
2018-07-19T07:30:20.746Z,7.10
2018-07-19T07:32:49.134Z,7.00
2018-07-19T07:35:17.710Z,6.67
2018-07-19T07:37:46.402Z,7.70
2018-07-19T07:40:15.046Z,7.03
2018-07-19T07:42:43.367Z,6.60
2018-07-19T07:45:12.050Z,6.77
2018-07-19T07:47:40.724Z,6.23
2018-07-19T07:50:09.416Z,7.17
2018-07-19T07:52:38.096Z,6.83
2018-07-19T07:55:06.798Z,7.20
2018-07-19T07:57:35.456Z,5.87
2018-07-19T08:00:04.583Z,6.90
2018-07-19T08:02:33.178Z,6.90
2018-07-19T08:05:01.919Z,7.10
2018-07-19T08:07:30.731Z,7.30
2018-07-19T08:09:59.281Z,6.80
2018-07-19T08:12:27.602Z,6.97
2018-07-19T08:14:56.282Z,7.30
2018-07-19T08:17:24.604Z,7.60
2018-07-19T08:19:53.495Z,5.43
2018-07-19T08:22:21.934Z,7.30
2018-07-19T08:24:50.622Z,6.20
2018-07-19T08:27:19.342Z,6.30
2018-07-19T08:29:47.995Z,6.00
2018-07-19T08:32:17.127Z,6.00
2018-07-19T08:34:45.438Z,6.90
2018-07-19T08:37:14.479Z,5.70
2018-07-19T08:39:43.563Z,5.50
2018-07-19T08:42:11.897Z,5.43
2018-07-19T08:44:40.611Z,5.50
2018-07-19T08:47:09.267Z,5.40
2018-07-19T08:49:37.942Z,6.47
2018-07-19T08:52:06.310Z,5.50
2018-07-19T08:54:35.114Z,5.70
2018-07-19T08:57:03.452Z,6.10
2018-07-19T08:59:32.227Z,5.63
2018-07-19T09:02:00.513Z,5.23
2018-07-19T09:04:29.019Z,5.07
2018-07-19T09:06:57.462Z,5.43
2018-07-19T09:09:26.279Z,6.50
2018-07-19T09:11:54.867Z,5.33
2018-07-19T09:14:23.223Z,6.23
2018-07-19T09:16:51.714Z,5.13
2018-07-19T09:19:20.444Z,5.43
2018-07-19T09:21:49.177Z,6.00
2018-07-19T09:24:17.515Z,5.87
2018-07-19T09:26:46.138Z,4.93
2018-07-19T09:29:14.842Z,5.43
2018-07-19T09:31:43.434Z,5.87
2018-07-19T09:34:11.787Z,5.50
2018-07-19T09:36:40.102Z,6.07
2018-07-19T09:39:10.421Z,5.40
2018-07-19T09:41:39.338Z,5.20
2018-07-19T09:44:07.790Z,5.37
2018-07-19T09:46:36.446Z,5.27
2018-07-19T09:49:05.139Z,5.40
2018-07-19T09:51:34.222Z,5.93
2018-07-19T09:54:02.946Z,6.00
2018-07-19T09:56:31.434Z,5.20
2018-07-19T09:59:00.206Z,6.17
2018-07-19T10:01:29.064Z,5.13
2018-07-19T10:03:57.750Z,4.60
2018-07-19T10:06:26.325Z,4.80
2018-07-19T10:08:54.970Z,5.63
2018-07-19T10:11:23.702Z,4.93
2018-07-19T10:13:52.750Z,5.90
2018-07-19T10:16:21.833Z,5.10
2018-07-19T10:18:50.142Z,5.20
2018-07-19T10:21:18.450Z,6.00
2018-07-19T10:23:46.736Z,5.77
2018-07-19T10:26:15.414Z,5.10
2018-07-19T10:28:44.045Z,4.30
2018-07-19T10:31:12.882Z,3.77
2018-07-19T10:33:41.470Z,5.57
2018-07-19T10:36:10.154Z,4.43
2018-07-19T10:38:39.258Z,4.40
2018-07-19T10:41:08.278Z,4.20
2018-07-19T10:43:36.638Z,4.53
2018-07-19T10:46:05.018Z,4.30
2018-07-19T10:48:33.347Z,4.33
2018-07-19T10:51:01.854Z,5.00
2018-07-19T10:53:30.134Z,4.60
2018-07-19T10:55:58.618Z,4.87
2018-07-19T10:58:27.566Z,4.73
2018-07-19T11:00:56.132Z,4.90
2018-07-19T11:03:24.878Z,4.43
2018-07-19T11:05:53.203Z,4.57
2018-07-19T11:08:21.850Z,4.50
2018-07-19T11:10:50.490Z,4.77
2018-07-19T11:13:18.758Z,4.90
2018-07-19T11:15:47.434Z,4.53
2018-07-19T11:18:16.179Z,4.40
2018-07-19T11:20:44.864Z,4.60
2018-07-19T11:23:13.560Z,5.23
2018-07-19T11:25:41.874Z,4.13
2018-07-19T11:28:10.353Z,4.13
2018-07-19T11:30:38.830Z,5.43
2018-07-19T11:33:07.674Z,4.47
2018-07-19T11:35:36.070Z,4.40
2018-07-19T11:38:04.587Z,3.90
2018-07-19T11:40:33.178Z,4.60
2018-07-19T11:43:01.839Z,4.80
2018-07-19T11:45:30.596Z,4.47
2018-07-19T11:47:59.333Z,4.40
2018-07-19T11:50:27.938Z,4.63
2018-07-19T11:52:56.970Z,4.60
2018-07-19T11:55:25.569Z,4.07
2018-07-19T11:57:54.031Z,4.80
2018-07-19T12:00:22.613Z,5.13
2018-07-19T12:02:51.299Z,4.57
2018-07-19T12:05:19.690Z,5.10
2018-07-19T12:07:48.325Z,5.40
2018-07-19T12:10:16.962Z,4.73
2018-07-19T12:12:45.568Z,5.70
2018-07-19T12:15:14.732Z,5.17
2018-07-19T12:17:43.353Z,4.57
2018-07-19T12:20:12.515Z,4.40
2018-07-19T12:22:40.799Z,4.50
2018-07-19T12:25:09.674Z,4.93
2018-07-19T12:27:38.274Z,4.77
2018-07-19T12:30:07.312Z,4.30
2018-07-19T12:32:36.038Z,4.67
2018-07-19T12:35:05.046Z,5.00
2018-07-19T12:37:33.734Z,3.97
2018-07-19T12:40:02.420Z,4.50
2018-07-19T12:42:31.197Z,4.20
2018-07-19T12:44:59.794Z,4.57
2018-07-19T12:47:28.462Z,4.93
2018-07-19T12:49:57.156Z,4.70
2018-07-19T12:52:25.779Z,4.80
2018-07-19T12:54:54.526Z,4.60
2018-07-19T12:57:22.799Z,4.90
2018-07-19T12:59:51.546Z,4.73
2018-07-19T13:02:20.101Z,4.90
2018-07-19T13:04:48.950Z,5.47
2018-07-19T13:07:17.258Z,5.40
2018-07-19T13:09:45.836Z,4.93
2018-07-19T13:12:14.917Z,5.43
2018-07-19T13:14:43.311Z,5.20
2018-07-19T13:17:11.936Z,4.63
2018-07-19T13:19:40.260Z,4.63
2018-07-19T13:22:08.999Z,5.43
2018-07-19T13:24:37.541Z,5.17
2018-07-19T13:27:06.217Z,6.00
2018-07-19T13:29:35.018Z,5.20
2018-07-19T13:32:03.595Z,5.07
2018-07-19T13:34:32.334Z,4.80
2018-07-19T13:37:00.643Z,5.60
2018-07-19T13:39:29.655Z,5.33
2018-07-19T13:41:58.259Z,5.63
2018-07-19T13:44:27.021Z,5.57
2018-07-19T13:46:56.125Z,5.83
2018-07-19T13:49:24.810Z,6.13
2018-07-19T13:51:53.826Z,6.13
2018-07-19T13:54:27.905Z,4.93
2018-07-19T13:56:57.059Z,5.53
2018-07-19T13:59:25.699Z,5.23
2018-07-19T14:01:54.798Z,5.30
2018-07-19T14:04:23.075Z,5.93
2018-07-19T14:06:52.165Z,5.30
2018-07-19T14:09:20.539Z,5.80
2018-07-19T14:11:49.130Z,5.03
2018-07-19T14:14:18.151Z,5.27
2018-07-19T14:16:46.911Z,5.13
2018-07-19T14:19:15.188Z,6.63
2018-07-19T14:21:43.878Z,5.67
2018-07-19T14:24:12.187Z,5.40
2018-07-19T14:26:40.486Z,5.53
2018-07-19T14:29:09.523Z,5.23
2018-07-19T14:31:38.679Z,5.07
2018-07-19T14:34:08.226Z,5.17
2018-07-19T14:36:36.795Z,5.13
2018-07-19T14:39:07.545Z,6.17
2018-07-19T14:41:36.466Z,4.93
2018-07-19T14:44:05.360Z,5.50
2018-07-19T14:46:34.054Z,5.27
2018-07-19T14:49:03.034Z,5.27
2018-07-19T14:51:31.387Z,4.50
2018-07-19T14:54:00.071Z,5.20
2018-07-19T14:56:28.871Z,4.80
2018-07-19T14:58:57.860Z,5.60
2018-07-19T15:01:26.939Z,5.20
2018-07-19T15:03:55.218Z,4.23
2018-07-19T15:06:24.582Z,4.50
2018-07-19T15:08:53.498Z,5.43
2018-07-19T15:11:22.506Z,5.40
2018-07-19T15:13:51.995Z,4.30
2018-07-19T15:16:21.110Z,5.40
2018-07-19T15:18:49.830Z,4.53
2018-07-19T15:21:18.886Z,4.70
2018-07-19T15:23:47.503Z,4.20
2018-07-19T15:26:16.259Z,4.10
2018-07-19T15:28:44.867Z,4.43
2018-07-19T15:31:14.034Z,4.97
2018-07-19T15:33:42.725Z,4.23
2018-07-19T15:36:11.777Z,4.60
2018-07-19T15:38:40.924Z,4.03
2018-07-19T15:41:10.350Z,4.93
2018-07-19T15:43:39.223Z,4.93
2018-07-19T15:46:07.796Z,4.80
2018-07-19T15:48:36.639Z,3.90
2018-07-19T15:51:05.205Z,4.27
2018-07-19T15:55:03.151Z,3.73
2018-07-19T15:57:31.826Z,4.50
2018-07-19T16:00:00.939Z,4.53
2018-07-19T16:02:29.628Z,4.70
2018-07-19T16:04:58.418Z,4.80
2018-07-19T16:07:27.413Z,3.53
2018-07-19T16:09:56.227Z,4.70
2018-07-19T16:12:24.787Z,5.20
2018-07-19T16:14:53.867Z,4.77
2018-07-19T16:17:22.956Z,5.10
2018-07-19T16:19:51.695Z,5.23
2018-07-19T16:22:20.375Z,5.17
2018-07-19T16:24:49.034Z,5.50
2018-07-19T16:27:17.702Z,4.80
2018-07-19T16:29:46.802Z,4.90
2018-07-19T16:32:15.601Z,4.63
2018-07-19T16:34:44.561Z,4.60
2018-07-19T16:37:13.379Z,5.50
2018-07-19T16:39:41.763Z,5.20
2018-07-19T16:42:10.750Z,4.97
2018-07-19T16:44:39.266Z,5.27
2018-07-19T16:47:08.422Z,5.23
2018-07-19T16:49:36.707Z,4.80
2018-07-19T16:52:05.819Z,5.27
2018-07-19T16:54:34.518Z,4.87
2018-07-19T16:57:03.627Z,5.33
2018-07-19T16:59:32.259Z,5.10
2018-07-19T17:02:00.578Z,5.37
2018-07-19T17:04:29.031Z,4.63
2018-07-19T17:06:57.923Z,4.73
2018-07-19T17:09:26.707Z,5.13
2018-07-19T17:11:55.693Z,4.67
2018-07-19T17:14:24.310Z,5.63
2018-07-19T17:16:53.159Z,5.30
2018-07-19T17:19:22.177Z,4.83
2018-07-19T17:21:50.861Z,5.13
2018-07-19T17:24:19.170Z,4.70
2018-07-19T17:26:47.814Z,5.03
2018-07-19T17:29:16.558Z,5.27
2018-07-19T17:31:45.759Z,5.27
2018-07-19T17:34:14.715Z,5.93
2018-07-19T17:36:43.387Z,5.60
2018-07-19T17:39:13.218Z,5.60
2018-07-19T17:41:42.263Z,5.63
2018-07-19T17:44:10.549Z,4.73
2018-07-19T17:46:38.858Z,5.20
2018-07-19T17:49:07.189Z,5.43
2018-07-19T17:51:36.154Z,6.10
2018-07-19T17:54:04.998Z,4.90
2018-07-19T17:56:33.325Z,5.20
2018-07-19T17:59:01.946Z,4.90
2018-07-19T18:01:30.342Z,5.53
2018-07-19T18:03:58.919Z,5.33
2018-07-19T18:06:28.357Z,5.73
2018-07-19T18:08:57.128Z,5.10
2018-07-19T18:11:25.899Z,5.40
2018-07-19T18:13:54.488Z,4.73
2018-07-19T18:16:22.884Z,5.20
2018-07-19T18:18:51.555Z,5.53
2018-07-19T18:21:20.546Z,4.73
2018-07-19T18:23:49.278Z,5.23
2018-07-19T18:26:17.918Z,5.10
2018-07-19T18:28:46.591Z,5.57
2018-07-19T18:31:15.285Z,5.70
2018-07-19T18:33:44.378Z,5.23
2018-07-19T18:36:13.475Z,5.60
2018-07-19T18:38:41.764Z,5.73
2018-07-19T18:41:10.491Z,4.90
2018-07-19T18:43:39.128Z,6.70
2018-07-19T18:46:08.234Z,6.30
2018-07-19T18:48:37.311Z,5.63
2018-07-19T18:51:06.420Z,5.60
2018-07-19T18:53:35.104Z,5.87
2018-07-19T18:56:04.198Z,5.07
2018-07-19T18:58:32.823Z,5.80
2018-07-19T19:01:01.194Z,6.60
2018-07-19T19:03:29.546Z,5.23
2018-07-19T19:05:58.536Z,5.33
2018-07-19T19:08:27.210Z,5.57
2018-07-19T19:10:55.509Z,6.00
2018-07-19T19:13:24.631Z,5.13
2018-07-19T19:15:54.034Z,5.93
2018-07-19T19:18:22.778Z,4.90
2018-07-19T19:20:51.394Z,5.33
2018-07-19T19:23:19.751Z,5.67
2018-07-19T19:25:48.566Z,5.13
2018-07-19T19:28:17.235Z,6.87
2018-07-19T19:30:46.203Z,5.60
2018-07-19T19:33:15.076Z,5.40
2018-07-19T19:35:43.995Z,5.47
2018-07-19T19:38:12.798Z,5.60
2018-07-19T19:40:41.356Z,6.85
2018-07-19T19:43:09.638Z,5.53
2018-07-19T19:45:38.738Z,6.17
2018-07-19T19:48:07.781Z,5.65
2018-07-19T19:50:36.858Z,5.42
2018-07-19T19:53:05.463Z,5.72
2018-07-19T19:55:34.299Z,6.10
2018-07-19T19:58:02.931Z,5.33
2018-07-19T20:00:32.079Z,6.05
2018-07-19T20:03:01.515Z,6.53
2018-07-19T20:05:30.293Z,5.95
2018-07-19T20:07:58.951Z,6.10
2018-07-19T20:10:27.247Z,6.47
2018-07-19T20:12:55.922Z,5.40
2018-07-19T20:15:24.966Z,7.05
2018-07-19T20:17:54.193Z,6.08
2018-07-19T20:20:22.746Z,5.62
2018-07-19T20:22:51.404Z,5.50
2018-07-19T20:25:20.593Z,6.00
2018-07-19T20:27:48.975Z,5.53
2018-07-19T20:30:17.466Z,5.03
2018-07-19T20:32:46.974Z,5.60
2018-07-19T20:35:15.743Z,6.03
2018-07-19T20:37:44.848Z,5.55
2018-07-19T20:40:13.507Z,6.00
2018-07-19T20:42:41.910Z,5.95
2018-07-19T20:45:10.891Z,5.95
2018-07-19T20:47:39.580Z,6.35
2018-07-19T20:50:08.800Z,5.70
2018-07-19T20:52:37.790Z,6.80
2018-07-19T20:55:06.906Z,5.83
2018-07-19T20:57:35.974Z,6.33
2018-07-19T21:00:05.415Z,5.47
2018-07-19T21:02:34.565Z,6.50
2018-07-19T21:05:03.649Z,7.25
2018-07-19T21:07:32.406Z,5.65
2018-07-19T21:10:01.035Z,5.97
2018-07-19T21:12:29.727Z,6.55
2018-07-19T21:14:58.807Z,6.20
2018-07-19T21:17:27.914Z,6.15
2018-07-19T21:19:57.479Z,6.45
2018-07-19T21:22:26.501Z,7.40
2018-07-19T21:24:55.946Z,7.35
2018-07-19T21:27:24.635Z,7.55
2018-07-19T21:29:53.637Z,7.75
2018-07-19T21:32:22.475Z,7.80
2018-07-19T21:34:50.803Z,7.40
2018-07-19T21:37:19.130Z,7.33
2018-07-19T21:39:48.141Z,7.15
2018-07-19T21:42:17.151Z,6.60
2018-07-19T21:44:45.490Z,7.45
2018-07-19T21:47:15.010Z,7.00
2018-07-19T21:49:44.103Z,7.33
2018-07-19T21:52:13.202Z,7.28
2018-07-19T21:54:42.002Z,8.20
2018-07-19T21:57:10.507Z,7.37
2018-07-19T21:59:38.846Z,9.15
2018-07-19T22:02:07.535Z,6.92
2018-07-19T22:04:36.327Z,7.28
2018-07-19T22:07:05.315Z,7.85
2018-07-19T22:09:34.422Z,8.10
2018-07-19T22:12:03.101Z,7.17
2018-07-19T22:14:31.783Z,7.58
2018-07-19T22:17:00.860Z,7.40
2018-07-19T22:19:29.983Z,8.30
2018-07-19T22:21:59.075Z,6.67
2018-07-19T22:24:28.173Z,7.87
2018-07-19T22:26:57.291Z,7.40
2018-07-19T22:29:25.954Z,6.87
2018-07-19T22:31:54.569Z,7.47
2018-07-19T22:34:23.618Z,6.83
2018-07-19T22:36:52.404Z,7.30
2018-07-19T22:39:20.782Z,7.03
2018-07-19T22:41:49.371Z,8.35
2018-07-19T22:44:18.466Z,6.85
2018-07-19T22:46:46.799Z,6.60
2018-07-19T22:49:15.836Z,7.05
2018-07-19T22:51:44.559Z,7.60
2018-07-19T22:54:13.212Z,6.22
2018-07-19T22:56:42.307Z,6.65
2018-07-19T22:59:11.003Z,7.50
2018-07-19T23:01:39.706Z,7.03
2018-07-19T23:04:08.393Z,7.85
2018-07-19T23:06:36.846Z,6.70
2018-07-19T23:09:06.565Z,9.48
2018-07-19T23:11:34.846Z,7.78
2018-07-19T23:14:04.350Z,7.78
2018-07-19T23:16:33.374Z,6.85
2018-07-19T23:19:01.724Z,7.92
2018-07-19T23:21:30.816Z,7.72
2018-07-19T23:23:59.906Z,6.75
2018-07-19T23:26:29.066Z,7.95
2018-07-19T23:28:58.644Z,7.62
2018-07-19T23:31:27.688Z,7.15
2018-07-19T23:33:56.760Z,7.85
2018-07-19T23:36:33.655Z,7.75
2018-07-19T23:39:07.926Z,7.47
2018-07-19T23:41:42.843Z,7.62
2018-07-19T23:44:15.923Z,7.60
2018-07-19T23:46:48.096Z,6.85
2018-07-19T23:49:17.011Z,8.25
2018-07-19T23:51:45.898Z,6.53
2018-07-19T23:54:14.458Z,8.65
2018-07-19T23:56:43.481Z,6.90
2018-07-19T23:59:12.642Z,7.35
